Time;durP1;ratioP1;P1;durP2;ratioP2;P2;SDS_P1;SDS_P2;PMS_P1;PMS_P2;Temp;Humidity;BMP_temperature;BMP_pressure;BME280_temperature;BME280_humidity;BME280_pressure;Samples;Min_cycle;Max_cycle;Signal;HPM_P1;HPM_P2
2024/04/09 00:01:05;;;;;;;2.25;2.05;;;;;;;;;;5450719;26;20223;-62
2024/04/09 00:03:31;;;;;;;2.00;1.90;;;;;;;;;;5448550;26;20228;-62
2024/04/09 00:06:00;;;;;;;2.85;2.28;;;;;;;;;;5450961;26;20329;-62
2024/04/09 00:08:28;;;;;;;3.40;2.72;;;;;;;;;;5448079;26;20231;-61
2024/04/09 00:11:00;;;;;;;3.55;2.75;;;;;;;;;;5450582;26;20232;-61
2024/04/09 00:13:25;;;;;;;3.28;2.75;;;;;;;;;;5448073;26;20271;-62
2024/04/09 00:15:53;;;;;;;2.15;2.00;;;;;;;;;;5450748;26;20584;-61
2024/04/09 00:18:24;;;;;;;3.78;2.83;;;;;;;;;;5448436;26;20282;-63
2024/04/09 00:20:53;;;;;;;2.08;1.88;;;;;;;;;;5448194;26;20761;-63
2024/04/09 00:23:22;;;;;;;2.22;1.60;;;;;;;;;;5390084;26;20231;-63
2024/04/09 00:25:51;;;;;;;1.90;1.70;;;;;;;;;;5387634;26;20299;-64
2024/04/09 00:28:19;;;;;;;3.80;2.40;;;;;;;;;;5450596;26;20236;-63
2024/04/09 00:30:45;;;;;;;2.97;2.78;;;;;;;;;;5448412;26;20232;-63
2024/04/09 00:33:14;;;;;;;4.43;4.13;;;;;;;;;;5450312;26;20299;-63
2024/04/09 00:35:40;;;;;;;3.25;3.05;;;;;;;;;;5415129;26;20239;-63
2024/04/09 00:38:14;;;;;;;4.30;3.67;;;;;;;;;;5450470;26;20649;-63
2024/04/09 00:40:42;;;;;;;2.95;2.22;;;;;;;;;;5447557;26;20270;-63
2024/04/09 00:43:13;;;;;;;3.33;3.05;;;;;;;;;;5450316;26;20228;-64
2024/04/09 00:45:38;;;;;;;3.28;2.50;;;;;;;;;;5447630;26;20265;-63
2024/04/09 00:48:07;;;;;;;3.70;3.40;;;;;;;;;;5387823;26;20716;-63
2024/04/09 00:50:51;;;;;;;3.83;3.53;;;;;;;;;;5447461;26;20786;-63
2024/04/09 00:53:19;;;;;;;4.15;3.05;;;;;;;;;;5450573;26;20274;-64
2024/04/09 00:55:45;;;;;;;2.92;2.55;;;;;;;;;;5447796;26;20339;-63
2024/04/09 00:58:17;;;;;;;2.75;2.55;;;;;;;;;;5450152;26;20620;-64
2024/04/09 01:00:43;;;;;;;3.90;3.10;;;;;;;;;;5447894;26;20228;-61
2024/04/09 01:03:12;;;;;;;3.95;3.45;;;;;;;;;;5449996;26;20280;-63
2024/04/09 01:05:37;;;;;;;2.08;1.98;;;;;;;;;;5447666;26;20223;-63
2024/04/09 01:08:06;;;;;;;2.35;2.15;;;;;;;;;;5449959;26;20274;-62
2024/04/09 01:10:31;;;;;;;4.07;3.33;;;;;;;;;;5447843;26;20360;-63
2024/04/09 01:13:00;;;;;;;4.70;4.30;;;;;;;;;;5450046;26;20251;-63
2024/04/09 01:15:28;;;;;;;8.20;7.50;;;;;;;;;;5447426;26;20315;-63
2024/04/09 01:17:58;;;;;;;9.63;8.65;;;;;;;;;;5416760;26;20755;-63
2024/04/09 01:20:24;;;;;;;9.07;7.65;;;;;;;;;;5446726;26;20235;-63
2024/04/09 01:22:54;;;;;;;12.43;11.43;;;;;;;;;;5449936;26;20700;-63
2024/04/09 01:25:20;;;;;;;12.23;11.25;;;;;;;;;;5447308;26;20255;-63
2024/04/09 01:27:48;;;;;;;13.02;11.88;;;;;;;;;;5449807;26;20332;-63
2024/04/09 01:30:14;;;;;;;11.65;10.52;;;;;;;;;;5447179;26;20244;-63
2024/04/09 01:32:44;;;;;;;10.52;9.68;;;;;;;;;;5449369;26;20232;-64
2024/04/09 01:35:11;;;;;;;8.85;8.05;;;;;;;;;;5387080;26;20232;-64
2024/04/09 01:37:39;;;;;;;7.63;7.03;;;;;;;;;;5449612;26;20231;-63
2024/04/09 01:40:07;;;;;;;6.95;6.38;;;;;;;;;;5447142;26;20708;-63
2024/04/09 01:42:36;;;;;;;7.45;6.80;;;;;;;;;;5386650;26;20228;-62
2024/04/09 01:45:02;;;;;;;6.85;6.35;;;;;;;;;;5446781;26;20263;-64
2024/04/09 01:47:30;;;;;;;6.97;6.38;;;;;;;;;;5449428;26;20232;-62
2024/04/09 01:49:57;;;;;;;9.05;8.25;;;;;;;;;;5447103;26;20247;-63
2024/04/09 01:52:25;;;;;;;11.13;9.80;;;;;;;;;;5449428;26;20705;-63
2024/04/09 01:54:51;;;;;;;9.77;8.98;;;;;;;;;;5446905;26;20574;-63
2024/04/09 01:57:22;;;;;;;7.15;6.47;;;;;;;;;;5449565;26;20324;-63
2024/04/09 01:59:47;;;;;;;7.85;6.70;;;;;;;;;;5446689;26;20267;-64
2024/04/09 02:02:17;;;;;;;5.32;4.85;;;;;;;;;;5449228;26;20271;-63
2024/04/09 02:04:42;;;;;;;4.32;4.03;;;;;;;;;;5446185;26;20228;-63
2024/04/09 02:07:11;;;;;;;5.28;4.82;;;;;;;;;;5449135;26;20336;-62
2024/04/09 02:09:37;;;;;;;4.22;3.92;;;;;;;;;;5446787;26;20228;-63
2024/04/09 02:12:07;;;;;;;4.90;4.00;;;;;;;;;;5448956;26;20712;-63
2024/04/09 02:14:36;;;;;;;6.70;6.20;;;;;;;;;;5446261;26;20739;-63
2024/04/09 02:17:05;;;;;;;8.25;5.85;;;;;;;;;;5448668;26;20339;-63
2024/04/09 02:19:30;;;;;;;6.00;5.50;;;;;;;;;;5446342;26;20240;-63
2024/04/09 02:21:59;;;;;;;3.60;3.40;;;;;;;;;;5449040;26;20782;-63
2024/04/09 02:24:25;;;;;;;2.95;2.75;;;;;;;;;;5446651;26;20279;-64
2024/04/09 02:26:54;;;;;;;2.70;2.50;;;;;;;;;;5449096;26;20262;-63
2024/04/09 02:29:19;;;;;;;3.63;3.40;;;;;;;;;;5446198;26;20296;-63
2024/04/09 02:31:51;;;;;;;3.55;3.25;;;;;;;;;;5450587;26;20764;-63
2024/04/09 02:34:17;;;;;;;3.17;2.88;;;;;;;;;;5450063;26;20228;-63
2024/04/09 02:36:45;;;;;;;3.40;3.10;;;;;;;;;;5452327;26;20865;-63
2024/04/09 02:39:11;;;;;;;2.97;2.55;;;;;;;;;;5388422;26;20227;-62
2024/04/09 02:41:39;;;;;;;3.20;2.95;;;;;;;;;;5451972;26;20291;-62
2024/04/09 02:44:05;;;;;;;3.53;3.33;;;;;;;;;;5449655;26;20309;-63
2024/04/09 02:46:33;;;;;;;3.05;2.85;;;;;;;;;;5451982;26;20236;-62
2024/04/09 02:49:03;;;;;;;2.70;2.50;;;;;;;;;;5449407;26;20236;-62
2024/04/09 02:51:31;;;;;;;3.05;2.85;;;;;;;;;;5452108;26;20232;-63
2024/04/09 02:53:57;;;;;;;3.63;2.92;;;;;;;;;;5449972;26;20353;-64
2024/04/09 02:56:25;;;;;;;3.15;2.85;;;;;;;;;;5451726;26;20708;-62
2024/04/09 02:58:50;;;;;;;3.08;2.78;;;;;;;;;;5449924;26;20231;-61
2024/04/09 03:01:18;;;;;;;3.22;2.92;;;;;;;;;;5419293;26;20762;-63
2024/04/09 03:03:44;;;;;;;2.67;2.47;;;;;;;;;;5449677;26;20228;-63
2024/04/09 03:06:16;;;;;;;2.40;2.30;;;;;;;;;;5451896;26;20328;-62
2024/04/09 03:08:42;;;;;;;3.63;3.00;;;;;;;;;;5449491;26;20292;-61
2024/04/09 03:11:14;;;;;;;3.05;2.85;;;;;;;;;;5451363;26;20295;-61
2024/04/09 03:13:40;;;;;;;2.67;2.47;;;;;;;;;;5449092;26;20228;-62
2024/04/09 03:16:13;;;;;;;2.92;2.72;;;;;;;;;;5451469;26;20236;-61
2024/04/09 03:18:38;;;;;;;3.15;2.83;;;;;;;;;;5448970;26;20281;-62
2024/04/09 03:21:07;;;;;;;2.22;2.13;;;;;;;;;;5451485;26;20227;-62
2024/04/09 03:23:35;;;;;;;3.63;3.33;;;;;;;;;;5448998;26;20239;-62
2024/04/09 03:26:05;;;;;;;4.65;4.28;;;;;;;;;;5451690;26;20274;-62
2024/04/09 03:28:31;;;;;;;5.10;4.65;;;;;;;;;;5448975;26;20594;-62
2024/04/09 03:30:59;;;;;;;5.30;4.90;;;;;;;;;;5451412;26;20228;-63
2024/04/09 03:33:24;;;;;;;5.70;4.93;;;;;;;;;;5448760;26;20353;-63
2024/04/09 03:35:54;;;;;;;4.70;4.30;;;;;;;;;;5451207;26;20232;-64
2024/04/09 03:38:22;;;;;;;3.60;3.30;;;;;;;;;;5448591;26;20228;-63
2024/04/09 03:40:57;;;;;;;4.15;3.85;;;;;;;;;;5448750;26;20228;-63
2024/04/09 03:43:23;;;;;;;2.92;2.72;;;;;;;;;;5415200;26;20227;-64
2024/04/09 03:46:01;;;;;;;3.80;3.25;;;;;;;;;;5450973;26;20232;-63
2024/04/09 03:48:26;;;;;;;4.78;4.38;;;;;;;;;;5448276;26;20240;-64
2024/04/09 03:50:55;;;;;;;4.78;4.38;;;;;;;;;;5451084;26;20283;-63
2024/04/09 03:53:20;;;;;;;5.88;5.38;;;;;;;;;;5448239;26;20231;-61
2024/04/09 03:55:57;;;;;;;8.55;7.78;;;;;;;;;;5450947;26;20666;-61
2024/04/09 03:58:23;;;;;;;12.23;11.15;;;;;;;;;;5448003;26;20220;-61
2024/04/09 04:01:01;;;;;;;15.65;14.35;;;;;;;;;;5450666;26;20305;-62
2024/04/09 04:03:27;;;;;;;21.92;20.00;;;;;;;;;;5448422;26;20269;-61
2024/04/09 04:05:56;;;;;;;20.92;19.08;;;;;;;;;;5450654;26;20232;-63
2024/04/09 04:08:22;;;;;;;19.48;17.77;;;;;;;;;;5448110;26;20709;-63
2024/04/09 04:10:59;;;;;;;24.00;21.95;;;;;;;;;;5450689;26;20717;-61
2024/04/09 04:13:25;;;;;;;16.52;15.20;;;;;;;;;;5448185;26;20277;-62
2024/04/09 04:16:04;;;;;;;14.82;13.63;;;;;;;;;;5450427;26;20336;-63
2024/04/09 04:18:29;;;;;;;10.00;9.10;;;;;;;;;;5447649;26;20244;-63
2024/04/09 04:20:58;;;;;;;17.52;16.05;;;;;;;;;;5450639;26;20278;-63
2024/04/09 04:23:24;;;;;;;17.73;16.23;;;;;;;;;;5447804;26;20397;-64
2024/04/09 04:25:56;;;;;;;11.00;10.20;;;;;;;;;;5450336;26;20642;-62
2024/04/09 04:28:24;;;;;;;12.30;11.07;;;;;;;;;;5447615;26;20282;-63
2024/04/09 04:30:52;;;;;;;12.10;11.15;;;;;;;;;;5450167;26;20271;-62
2024/04/09 04:33:17;;;;;;;12.25;11.25;;;;;;;;;;5447805;26;20228;-61
2024/04/09 04:35:46;;;;;;;12.20;11.20;;;;;;;;;;5450399;26;20224;-64
2024/04/09 04:38:12;;;;;;;13.98;12.88;;;;;;;;;;5447884;26;20228;-63
2024/04/09 04:40:40;;;;;;;17.33;15.90;;;;;;;;;;5450076;26;20277;-61
2024/04/09 04:43:05;;;;;;;15.75;14.48;;;;;;;;;;5447461;26;20305;-62
2024/04/09 04:45:37;;;;;;;14.15;12.90;;;;;;;;;;5450170;26;20227;-60
2024/04/09 04:48:03;;;;;;;14.15;12.85;;;;;;;;;;5447308;26;20263;-62
2024/04/09 04:50:31;;;;;;;12.82;11.73;;;;;;;;;;5387759;26;20243;-61
2024/04/09 04:52:56;;;;;;;16.48;14.95;;;;;;;;;;5447143;26;20712;-61
2024/04/09 04:55:25;;;;;;;68.93;49.42;;;;;;;;;;5386491;26;20228;-61
2024/04/09 04:57:50;;;;;;;34.40;25.27;;;;;;;;;;5447292;26;20744;-62
2024/04/09 05:00:18;;;;;;;20.83;17.92;;;;;;;;;;5450000;26;20380;-61
2024/04/09 05:02:48;;;;;;;18.20;15.13;;;;;;;;;;5447227;26;20343;-61
2024/04/09 05:05:16;;;;;;;9.88;8.90;;;;;;;;;;5450267;26;20224;-62
2024/04/09 05:07:42;;;;;;;6.38;5.78;;;;;;;;;;5446875;26;20236;-61
2024/04/09 05:10:12;;;;;;;5.70;5.00;;;;;;;;;;5449851;26;20328;-62
2024/04/09 05:12:38;;;;;;;8.63;7.72;;;;;;;;;;5446584;26;20341;-62
2024/04/09 05:15:08;;;;;;;11.38;10.23;;;;;;;;;;5449749;26;20235;-62
2024/04/09 05:17:33;;;;;;;10.45;8.55;;;;;;;;;;5447370;26;20357;-63
2024/04/09 05:20:09;;;;;;;7.95;6.25;;;;;;;;;;5449458;26;20232;-60
2024/04/09 05:22:35;;;;;;;5.25;3.72;;;;;;;;;;5447052;26;20275;-61
2024/04/09 05:25:03;;;;;;;3.25;3.03;;;;;;;;;;5449166;26;20710;-61
2024/04/09 05:27:28;;;;;;;5.10;4.63;;;;;;;;;;5446760;26;20235;-61
2024/04/09 05:29:57;;;;;;;5.30;3.70;;;;;;;;;;5447470;26;20559;-61
2024/04/09 05:32:26;;;;;;;2.70;2.25;;;;;;;;;;5446902;26;20442;-60
2024/04/09 05:34:52;;;;;;;2.30;1.95;;;;;;;;;;5413851;26;20270;-60
2024/04/09 05:37:24;;;;;;;2.47;2.10;;;;;;;;;;5449258;26;20708;-59
2024/04/09 05:39:49;;;;;;;8.07;6.88;;;;;;;;;;5446748;26;20291;-60
2024/04/09 05:42:18;;;;;;;4.20;3.80;;;;;;;;;;5416567;26;20332;-59
2024/04/09 05:44:43;;;;;;;4.57;3.10;;;;;;;;;;5446539;26;20266;-59
2024/04/09 05:47:11;;;;;;;3.03;2.35;;;;;;;;;;5448979;26;21114;-59
2024/04/09 05:49:37;;;;;;;2.88;2.50;;;;;;;;;;5385415;26;20321;-59
2024/04/09 05:52:05;;;;;;;3.35;2.35;;;;;;;;;;5449065;26;20232;-59
2024/04/09 05:54:38;;;;;;;1.60;1.50;;;;;;;;;;5446800;26;20232;-59
2024/04/09 05:57:07;;;;;;;3.03;1.95;;;;;;;;;;5448918;26;20289;-59
2024/04/09 05:59:33;;;;;;;1.95;1.20;;;;;;;;;;5446658;26;20227;-59
2024/04/09 06:02:01;;;;;;;1.95;1.75;;;;;;;;;;5448829;26;20283;-59
2024/04/09 06:04:26;;;;;;;3.45;1.90;;;;;;;;;;5446473;26;20463;-59
2024/04/09 06:06:55;;;;;;;2.78;1.75;;;;;;;;;;5452187;26;20235;-59
2024/04/09 06:09:20;;;;;;;2.05;1.85;;;;;;;;;;5449489;26;20712;-59
2024/04/09 06:11:51;;;;;;;4.47;1.92;;;;;;;;;;5451952;26;20307;-59
2024/04/09 06:14:17;;;;;;;2.15;1.90;;;;;;;;;;5388394;26;20720;-59
2024/04/09 06:16:45;;;;;;;4.50;2.75;;;;;;;;;;5452202;26;20231;-59
2024/04/09 06:19:11;;;;;;;2.30;2.00;;;;;;;;;;5449136;26;20724;-59
2024/04/09 06:21:39;;;;;;;2.65;2.45;;;;;;;;;;5452090;26;20299;-59
2024/04/09 06:24:05;;;;;;;2.85;2.58;;;;;;;;;;5388259;26;20331;-59
2024/04/09 06:26:33;;;;;;;2.85;2.45;;;;;;;;;;5451800;26;20236;-59
2024/04/09 06:29:01;;;;;;;2.50;2.00;;;;;;;;;;5449317;26;20279;-59
2024/04/09 06:31:29;;;;;;;2.90;2.60;;;;;;;;;;5418537;26;20236;-59
2024/04/09 06:33:55;;;;;;;3.80;2.20;;;;;;;;;;5449674;26;20236;-59
2024/04/09 06:36:23;;;;;;;2.40;2.20;;;;;;;;;;5451932;26;20275;-59
2024/04/09 06:38:49;;;;;;;4.40;2.63;;;;;;;;;;5449436;26;20232;-58
2024/04/09 06:41:17;;;;;;;5.82;2.38;;;;;;;;;;5451722;26;20224;-59
2024/04/09 06:43:42;;;;;;;1.60;1.50;;;;;;;;;;5449290;26;20228;-59
2024/04/09 06:46:13;;;;;;;2.70;1.80;;;;;;;;;;5419519;26;20561;-59
2024/04/09 06:48:39;;;;;;;3.60;2.22;;;;;;;;;;5449535;26;20343;-59
2024/04/09 06:51:07;;;;;;;5.13;2.53;;;;;;;;;;5452095;26;20228;-59
2024/04/09 06:53:32;;;;;;;3.90;2.95;;;;;;;;;;5449247;26;20228;-59
2024/04/09 06:56:01;;;;;;;4.88;2.92;;;;;;;;;;5451448;26;20274;-58
2024/04/09 06:58:26;;;;;;;4.65;3.10;;;;;;;;;;5448806;26;20635;-58
2024/04/09 07:00:54;;;;;;;4.40;3.13;;;;;;;;;;5451494;26;20411;-58
2024/04/09 07:03:23;;;;;;;3.20;2.00;;;;;;;;;;5448520;26;20228;-58
2024/04/09 07:05:52;;;;;;;2.85;2.55;;;;;;;;;;5451555;26;20349;-58
2024/04/09 07:08:17;;;;;;;4.43;3.17;;;;;;;;;;5449079;26;20243;-56
2024/04/09 07:10:46;;;;;;;4.60;2.15;;;;;;;;;;5451560;26;20373;-58
2024/04/09 07:13:11;;;;;;;5.25;3.22;;;;;;;;;;5448854;26;20231;-58
2024/04/09 07:15:39;;;;;;;4.32;2.83;;;;;;;;;;5451099;26;20228;-59
2024/04/09 07:18:05;;;;;;;2.83;2.40;;;;;;;;;;5447718;26;20236;-58
2024/04/09 07:20:36;;;;;;;4.22;2.22;;;;;;;;;;5451281;26;20794;-59
2024/04/09 07:23:01;;;;;;;4.18;2.17;;;;;;;;;;5448289;26;20323;-58
2024/04/09 07:25:31;;;;;;;1.88;1.77;;;;;;;;;;5450977;26;20224;-58
2024/04/09 07:27:56;;;;;;;2.00;1.80;;;;;;;;;;5448664;26;20231;-59
2024/04/09 07:30:24;;;;;;;3.72;2.20;;;;;;;;;;5448590;26;20791;-58
2024/04/09 07:32:50;;;;;;;2.30;1.83;;;;;;;;;;5448337;26;20228;-59
2024/04/09 07:35:18;;;;;;;2.42;1.75;;;;;;;;;;5451114;26;20328;-59
2024/04/09 07:37:46;;;;;;;2.08;1.88;;;;;;;;;;5448254;26;21208;-58
2024/04/09 07:40:15;;;;;;;2.00;1.80;;;;;;;;;;5417840;26;20227;-58
2024/04/09 07:42:40;;;;;;;2.53;2.10;;;;;;;;;;5447917;26;20760;-58
2024/04/09 07:45:10;;;;;;;1.80;1.70;;;;;;;;;;5450562;26;20328;-58
2024/04/09 07:47:35;;;;;;;2.28;2.05;;;;;;;;;;5447843;26;20228;-58
2024/04/09 07:50:09;;;;;;;3.35;1.88;;;;;;;;;;5450257;26;20244;-58
2024/04/09 07:52:36;;;;;;;2.95;1.75;;;;;;;;;;5447889;26;20270;-57
2024/04/09 07:55:08;;;;;;;1.92;1.40;;;;;;;;;;5450301;26;20805;-58
2024/04/09 07:57:34;;;;;;;2.30;2.08;;;;;;;;;;5329036;26;20220;-58
2024/04/09 08:00:06;;;;;;;3.15;1.95;;;;;;;;;;5450438;26;20247;-58
2024/04/09 08:02:31;;;;;;;2.47;2.10;;;;;;;;;;5447832;26;20708;-58
2024/04/09 08:05:00;;;;;;;2.30;1.42;;;;;;;;;;5450412;26;20224;-58
2024/04/09 08:07:26;;;;;;;2.60;1.80;;;;;;;;;;5447604;26;20582;-58
2024/04/09 08:09:54;;;;;;;1.88;1.30;;;;;;;;;;5450128;26;20227;-57
2024/04/09 08:12:22;;;;;;;1.60;1.30;;;;;;;;;;5447366;26;20232;-57
2024/04/09 08:14:51;;;;;;;2.20;1.52;;;;;;;;;;5450181;26;20747;-58
2024/04/09 08:17:17;;;;;;;2.22;1.77;;;;;;;;;;5447533;26;20224;-59
2024/04/09 08:19:45;;;;;;;2.65;1.60;;;;;;;;;;5387266;26;20341;-58
2024/04/09 08:22:11;;;;;;;2.08;1.33;;;;;;;;;;5447621;26;20276;-59
2024/04/09 08:24:39;;;;;;;0.95;0.95;;;;;;;;;;5450181;26;21097;-59
2024/04/09 08:27:04;;;;;;;2.47;1.20;;;;;;;;;;5447417;26;20224;-59
2024/04/09 08:29:35;;;;;;;1.77;0.85;;;;;;;;;;5448735;26;20295;-58
2024/04/09 08:32:01;;;;;;;2.72;0.95;;;;;;;;;;5328412;26;20307;-59
2024/04/09 08:34:29;;;;;;;0.82;0.70;;;;;;;;;;5449743;26;20825;-58
2024/04/09 08:36:55;;;;;;;0.70;0.70;;;;;;;;;;5447321;26;20228;-58
2024/04/09 08:39:24;;;;;;;1.08;0.95;;;;;;;;;;5387368;26;20224;-58
2024/04/09 08:41:50;;;;;;;1.20;1.10;;;;;;;;;;5447247;26;20239;-58
2024/04/09 08:44:18;;;;;;;1.13;1.02;;;;;;;;;;5449904;26;20284;-59
2024/04/09 08:46:46;;;;;;;2.67;1.20;;;;;;;;;;5447494;26;20247;-59
2024/04/09 08:49:15;;;;;;;1.00;1.00;;;;;;;;;;5449525;26;20356;-59
2024/04/09 08:51:41;;;;;;;1.02;0.90;;;;;;;;;;5446936;26;20232;-59
2024/04/09 08:54:09;;;;;;;1.10;1.02;;;;;;;;;;5449340;26;20322;-59
2024/04/09 08:56:35;;;;;;;2.58;0.75;;;;;;;;;;5447136;26;20235;-59
2024/04/09 08:59:04;;;;;;;0.65;0.65;;;;;;;;;;5386968;26;20266;-58
2024/04/09 09:01:30;;;;;;;1.52;0.90;;;;;;;;;;5447067;26;20878;-59
2024/04/09 09:04:01;;;;;;;1.13;0.90;;;;;;;;;;5449452;26;20276;-58
2024/04/09 09:06:26;;;;;;;1.38;0.95;;;;;;;;;;5446379;26;20271;-57
2024/04/09 09:08:55;;;;;;;0.93;0.93;;;;;;;;;;5449621;26;20231;-58
2024/04/09 09:11:21;;;;;;;1.75;0.80;;;;;;;;;;5446887;26;20557;-59
2024/04/09 09:13:49;;;;;;;1.10;1.00;;;;;;;;;;5449413;26;20228;-59
2024/04/09 09:16:15;;;;;;;1.13;0.98;;;;;;;;;;5414463;26;20768;-59
2024/04/09 09:18:43;;;;;;;1.15;0.90;;;;;;;;;;5449128;26;20340;-58
2024/04/09 09:21:13;;;;;;;0.95;0.82;;;;;;;;;;5446438;26;20235;-59
2024/04/09 09:23:41;;;;;;;1.13;0.80;;;;;;;;;;5387379;26;20364;-59
2024/04/09 09:26:07;;;;;;;0.65;0.65;;;;;;;;;;5446654;26;20228;-59
2024/04/09 09:28:37;;;;;;;1.77;1.23;;;;;;;;;;5448754;26;20258;-59
2024/04/09 09:31:03;;;;;;;1.80;0.98;;;;;;;;;;5446357;26;20713;-59
2024/04/09 09:33:32;;;;;;;0.73;0.73;;;;;;;;;;5448830;26;20232;-60
2024/04/09 09:35:57;;;;;;;2.85;1.30;;;;;;;;;;5446352;26;20287;-59
2024/04/09 09:38:29;;;;;;;1.52;0.98;;;;;;;;;;5448984;26;20231;-58
2024/04/09 09:40:54;;;;;;;1.77;1.10;;;;;;;;;;5445746;26;20604;-58
2024/04/09 09:43:23;;;;;;;1.25;1.00;;;;;;;;;;5448884;26;20232;-58
2024/04/09 09:45:49;;;;;;;1.02;1.00;;;;;;;;;;5446383;26;20340;-57
2024/04/09 09:48:19;;;;;;;1.55;0.85;;;;;;;;;;5448712;26;20255;-59
2024/04/09 09:50:46;;;;;;;0.70;0.70;;;;;;;;;;5446260;26;21063;-59
2024/04/09 09:53:14;;;;;;;0.80;0.80;;;;;;;;;;5448701;26;20271;-58
2024/04/09 09:55:43;;;;;;;0.90;0.90;;;;;;;;;;5446108;26;20278;-58
2024/04/09 09:58:13;;;;;;;1.48;0.70;;;;;;;;;;5448687;26;20273;-58
2024/04/09 10:00:40;;;;;;;1.05;0.80;;;;;;;;;;5445750;26;20232;-59
2024/04/09 10:03:09;;;;;;;0.80;0.75;;;;;;;;;;5448360;26;20228;-58
2024/04/09 10:05:35;;;;;;;2.65;0.82;;;;;;;;;;5446209;26;20232;-59
2024/04/09 10:08:03;;;;;;;1.58;0.98;;;;;;;;;;5448341;26;20646;-58
2024/04/09 10:10:30;;;;;;;0.80;0.80;;;;;;;;;;5326739;26;20349;-58
2024/04/09 10:13:09;;;;;;;1.25;0.80;;;;;;;;;;5448683;26;20725;-59
2024/04/09 10:15:43;;;;;;;0.82;0.82;;;;;;;;;;5445818;26;20709;-59
2024/04/09 10:18:11;;;;;;;2.22;1.05;;;;;;;;;;5448083;26;20295;-59
2024/04/09 10:20:37;;;;;;;1.25;0.73;;;;;;;;;;5445877;26;20262;-59
2024/04/09 10:23:06;;;;;;;1.27;1.17;;;;;;;;;;5448357;26;20267;-59
2024/04/09 10:25:35;;;;;;;0.90;0.85;;;;;;;;;;5445832;26;20228;-59
2024/04/09 10:28:08;;;;;;;1.00;0.90;;;;;;;;;;5447808;26;20274;-59
2024/04/09 10:30:34;;;;;;;0.50;0.40;;;;;;;;;;5445707;26;20235;-59
2024/04/09 10:33:03;;;;;;;1.27;0.90;;;;;;;;;;5447848;26;20232;-58
2024/04/09 10:35:29;;;;;;;0.60;0.60;;;;;;;;;;5446421;26;20224;-59
2024/04/09 10:37:58;;;;;;;2.05;0.80;;;;;;;;;;5448273;26;20275;-58
2024/04/09 10:40:24;;;;;;;0.70;0.70;;;;;;;;;;5445588;26;20216;-58
2024/04/09 10:42:54;;;;;;;0.70;0.70;;;;;;;;;;5448049;26;20232;-59
2024/04/09 10:45:22;;;;;;;2.13;0.80;;;;;;;;;;5445317;26;20613;-58
2024/04/09 10:47:50;;;;;;;1.15;0.70;;;;;;;;;;5447558;26;20231;-59
2024/04/09 10:50:16;;;;;;;0.50;0.50;;;;;;;;;;5445318;26;20240;-59
2024/04/09 10:52:44;;;;;;;0.70;0.70;;;;;;;;;;5449234;26;20228;-58
2024/04/09 10:55:11;;;;;;;0.85;0.80;;;;;;;;;;5448852;26;20227;-58
2024/04/09 10:57:39;;;;;;;1.85;1.10;;;;;;;;;;5388809;26;20643;-59
2024/04/09 11:00:08;;;;;;;1.80;0.75;;;;;;;;;;5448472;26;20247;-58
2024/04/09 11:02:39;;;;;;;1.85;0.80;;;;;;;;;;5390180;26;20328;-59
2024/04/09 11:05:05;;;;;;;1.02;0.60;;;;;;;;;;5448655;26;20264;-58
2024/04/09 11:07:35;;;;;;;0.77;0.70;;;;;;;;;;5388218;26;20228;-59
2024/04/09 11:10:01;;;;;;;0.80;0.80;;;;;;;;;;5448546;26;20878;-58
2024/04/09 11:12:30;;;;;;;2.15;0.70;;;;;;;;;;5450743;26;20223;-58
2024/04/09 11:14:57;;;;;;;1.52;0.73;;;;;;;;;;5448581;26;20236;-58
2024/04/09 11:17:25;;;;;;;2.05;1.10;;;;;;;;;;5450967;26;20228;-59
2024/04/09 11:20:05;;;;;;;0.98;0.63;;;;;;;;;;5448760;26;20228;-59
2024/04/09 11:22:35;;;;;;;1.77;0.90;;;;;;;;;;5451006;26;20227;-59
2024/04/09 11:25:00;;;;;;;1.08;0.77;;;;;;;;;;5448213;26;20232;-58
2024/04/09 11:27:28;;;;;;;1.63;1.05;;;;;;;;;;5451032;26;20254;-59
2024/04/09 11:29:54;;;;;;;1.00;0.75;;;;;;;;;;5448280;26;20290;-59
2024/04/09 11:32:22;;;;;;;1.15;1.05;;;;;;;;;;5450979;26;20223;-59
2024/04/09 11:34:48;;;;;;;1.80;0.80;;;;;;;;;;5448390;26;20274;-59
2024/04/09 11:37:21;;;;;;;0.93;0.70;;;;;;;;;;5450747;26;20230;-59
2024/04/09 11:39:46;;;;;;;1.23;1.02;;;;;;;;;;5448239;26;20259;-58
2024/04/09 11:42:14;;;;;;;1.65;1.00;;;;;;;;;;5450674;26;20236;-58
2024/04/09 11:44:40;;;;;;;0.70;0.47;;;;;;;;;;5415459;26;20716;-59
2024/04/09 11:47:08;;;;;;;0.70;0.60;;;;;;;;;;5450296;26;20270;-59
2024/04/09 11:49:34;;;;;;;1.58;0.93;;;;;;;;;;5447805;26;20248;-58
2024/04/09 11:52:02;;;;;;;1.90;1.48;;;;;;;;;;5387603;26;20278;-58
2024/04/09 11:54:30;;;;;;;2.88;0.90;;;;;;;;;;5447966;26;20664;-58
2024/04/09 11:56:58;;;;;;;2.05;0.80;;;;;;;;;;5450379;26;20267;-59
2024/04/09 11:59:24;;;;;;;0.85;0.55;;;;;;;;;;5448078;26;20229;-58
2024/04/09 12:01:52;;;;;;;2.35;0.52;;;;;;;;;;5450396;26;20228;-58
2024/04/09 12:04:20;;;;;;;0.70;0.70;;;;;;;;;;5447545;26;20599;-59
2024/04/09 12:06:48;;;;;;;1.35;0.70;;;;;;;;;;5450251;26;20231;-58
2024/04/09 12:09:14;;;;;;;3.58;1.95;;;;;;;;;;5447896;26;20357;-59
2024/04/09 12:11:44;;;;;;;1.60;1.30;;;;;;;;;;5450218;26;20244;-58
2024/04/09 12:14:10;;;;;;;9.30;5.30;;;;;;;;;;5414887;26;20365;-58
2024/04/09 12:16:42;;;;;;;2.40;1.10;;;;;;;;;;5450232;26;20721;-59
2024/04/09 12:19:08;;;;;;;0.60;0.60;;;;;;;;;;5447513;26;20266;-59
2024/04/09 12:21:36;;;;;;;1.40;1.05;;;;;;;;;;5450268;26;20715;-59
2024/04/09 12:24:03;;;;;;;4.05;3.20;;;;;;;;;;5447456;26;20220;-58
2024/04/09 12:26:32;;;;;;;0.47;0.47;;;;;;;;;;5449881;26;20313;-59
2024/04/09 12:29:00;;;;;;;0.63;0.50;;;;;;;;;;5447535;26;20291;-59
2024/04/09 12:31:28;;;;;;;2.40;2.15;;;;;;;;;;5449898;26;20271;-59
2024/04/09 12:33:54;;;;;;;0.85;0.73;;;;;;;;;;5447590;26;20232;-59
2024/04/09 12:36:22;;;;;;;0.55;0.50;;;;;;;;;;5449837;26;20633;-58
2024/04/09 12:38:47;;;;;;;0.60;0.60;;;;;;;;;;5447662;26;20227;-58
2024/04/09 12:41:16;;;;;;;0.60;0.60;;;;;;;;;;5417358;26;20340;-59
2024/04/09 12:43:41;;;;;;;0.95;0.75;;;;;;;;;;5447382;26;20768;-59
2024/04/09 12:46:12;;;;;;;1.00;0.77;;;;;;;;;;5449917;26;20232;-59
2024/04/09 12:48:38;;;;;;;9.43;6.93;;;;;;;;;;5446881;26;20596;-57
2024/04/09 12:51:08;;;;;;;3.90;2.47;;;;;;;;;;5449917;26;20853;-59
2024/04/09 12:53:34;;;;;;;0.98;0.60;;;;;;;;;;5384552;26;20228;-59
2024/04/09 12:56:03;;;;;;;3.30;2.70;;;;;;;;;;5449697;26;21144;-58
2024/04/09 12:58:28;;;;;;;5.10;3.88;;;;;;;;;;5446842;26;20574;-59
2024/04/09 13:00:57;;;;;;;2.85;1.50;;;;;;;;;;5449822;26;20295;-59
2024/04/09 13:03:25;;;;;;;1.38;0.60;;;;;;;;;;5446904;26;20231;-59
2024/04/09 13:05:53;;;;;;;0.55;0.30;;;;;;;;;;5449626;26;20236;-59
2024/04/09 13:08:19;;;;;;;0.82;0.50;;;;;;;;;;5447159;26;20316;-59
2024/04/09 13:10:47;;;;;;;3.72;2.33;;;;;;;;;;5449286;26;20232;-59
2024/04/09 13:13:13;;;;;;;3.92;1.83;;;;;;;;;;5447076;26;20323;-59
2024/04/09 13:15:41;;;;;;;0.60;0.57;;;;;;;;;;5448092;26;20568;-59
2024/04/09 13:18:07;;;;;;;1.58;0.98;;;;;;;;;;5446857;26;20274;-58
2024/04/09 13:20:37;;;;;;;1.77;1.67;;;;;;;;;;5449510;26;20228;-59
2024/04/09 13:23:03;;;;;;;2.08;1.80;;;;;;;;;;5385854;26;20731;-58
2024/04/09 13:25:31;;;;;;;0.95;0.70;;;;;;;;;;5449495;26;20228;-59
2024/04/09 13:27:57;;;;;;;0.60;0.60;;;;;;;;;;5413965;26;20224;-59
2024/04/09 13:30:27;;;;;;;0.68;0.68;;;;;;;;;;5447322;26;20248;-59
2024/04/09 13:32:53;;;;;;;0.95;0.63;;;;;;;;;;5446642;26;20336;-59
2024/04/09 13:35:21;;;;;;;12.32;7.65;;;;;;;;;;5449459;26;20711;-59
2024/04/09 13:37:49;;;;;;;1.98;1.42;;;;;;;;;;5446748;26;20228;-59
2024/04/09 13:40:17;;;;;;;2.45;0.82;;;;;;;;;;5449502;26;20227;-59
2024/04/09 13:42:44;;;;;;;0.90;0.52;;;;;;;;;;5446390;26;20705;-59
2024/04/09 13:45:12;;;;;;;0.73;0.60;;;;;;;;;;5386641;26;20271;-59
2024/04/09 13:47:38;;;;;;;0.63;0.55;;;;;;;;;;5446675;26;20296;-59
2024/04/09 13:50:07;;;;;;;1.20;0.70;;;;;;;;;;5386767;26;20244;-59
2024/04/09 13:52:33;;;;;;;1.58;0.93;;;;;;;;;;5446536;26;20236;-59
2024/04/09 13:55:05;;;;;;;0.68;0.57;;;;;;;;;;5448548;26;20228;-58
2024/04/09 13:57:32;;;;;;;2.10;1.50;;;;;;;;;;5413555;26;20266;-59
2024/04/09 14:00:00;;;;;;;4.18;3.00;;;;;;;;;;5448511;26;20235;-59
2024/04/09 14:02:25;;;;;;;4.07;3.10;;;;;;;;;;5445902;26;20319;-59
2024/04/09 14:04:54;;;;;;;2.88;2.00;;;;;;;;;;5448469;26;20236;-59
2024/04/09 14:07:20;;;;;;;1.90;1.27;;;;;;;;;;5446206;26;20220;-59
2024/04/09 14:09:48;;;;;;;1.95;0.80;;;;;;;;;;5448495;26;20262;-59
2024/04/09 14:12:16;;;;;;;1.08;0.80;;;;;;;;;;5445980;26;20227;-59
2024/04/09 14:14:44;;;;;;;1.73;0.95;;;;;;;;;;5448271;26;20228;-59
2024/04/09 14:17:11;;;;;;;2.20;1.35;;;;;;;;;;5445821;26;20228;-59
2024/04/09 14:19:39;;;;;;;5.70;3.75;;;;;;;;;;5448596;26;20240;-59
2024/04/09 14:22:05;;;;;;;1.30;1.20;;;;;;;;;;5446137;26;20236;-59
2024/04/09 14:24:33;;;;;;;1.25;0.85;;;;;;;;;;5416167;26;20309;-59
2024/04/09 14:26:58;;;;;;;0.98;0.70;;;;;;;;;;5447938;26;20709;-59
2024/04/09 14:29:29;;;;;;;2.72;1.80;;;;;;;;;;5417904;26;20239;-59
2024/04/09 14:31:55;;;;;;;5.07;3.40;;;;;;;;;;5449576;26;20267;-59
2024/04/09 14:34:24;;;;;;;3.78;2.90;;;;;;;;;;5451430;26;20275;-59
2024/04/09 14:36:50;;;;;;;1.23;1.13;;;;;;;;;;5449363;26;20279;-59
2024/04/09 14:39:18;;;;;;;1.67;0.82;;;;;;;;;;5389220;26;20232;-59
2024/04/09 14:41:44;;;;;;;2.50;1.02;;;;;;;;;;5449083;26;20232;-60
2024/04/09 14:44:12;;;;;;;1.95;1.35;;;;;;;;;;5451568;26;20228;-59